Terminal Aerodrome Forecast
Issued by NWS Twin Cities, MN

Home | Current Version | Previous Version | Graphics & Text | Print | Product List | Glossary Off
Versions: 1 2 3 4 5 6 7 8 9 10 11 12 13 14 15 16 17 18 19 20 21 22 23 24 25 26 27 28 29 30

000
FTUS43 KMPX 291100
TAFMSP
TAF
KMSP 291140Z 2912/3018 17006KT P6SM SCT010 BKN050
      TEMPO 2912/2914 BKN008
     FM291500 20007KT P6SM SCT020 BKN080
     FM291800 22006KT P6SM VCSH SCT025 OVC120
      TEMPO 2920/2923 2SM -TSRA BKN020CB
     FM300300 32004KT P6SM SCT020 BKN090
     FM300600 35005KT P6SM SCT006 OVC012
     FM300900 35005KT 6SM BR OVC005
     FM301500 36006KT P6SM BKN010 OVC020=

USA.gov is the U.S. government's official web portal to all federal, state and local government web resources and services.